Port Jefferson Station, New York
Current Conditions -  °F | °C
As of 3:56 PM on Thursday 18 Dec 2014 (Local Time) from KISP Reporting Station
Scattered Clouds Scattered Clouds  
Wind Chill: 32°   Ceiling: Unl
Heat Index: 40°   Visibility: 10mi
Dew Point: 25°   Wind: 15mph
Humidity: 55%   Direction: 290°WNW
Pressure: 29.91"   Gusts: 23mph
Location:  40.93°N, 73.05°W
Report Text: KISP 182056Z 29013G20KT 10SM SCT041 04/M04 A2991 RMK AO2 SLP129 T00441039 53003
Loading
Personal Weather Stations






























Interactive Weather Map New forecast layout! Learn more

10-Day Weather Forecast

Advertisements
Track Severe Weather on mobile